createdAt,value
2022-09-15T00:02:11.848Z,68.33
2022-09-15T00:04:38.459Z,68.64
2022-09-15T00:07:04.973Z,68.70
2022-09-15T00:09:31.844Z,68.42
2022-09-15T00:11:58.440Z,68.59
2022-09-15T00:14:24.941Z,68.60
2022-09-15T00:16:51.785Z,68.29
2022-09-15T00:19:18.286Z,68.10
2022-09-15T00:21:44.794Z,68.05
2022-09-15T00:24:11.487Z,67.85
2022-09-15T00:26:38.327Z,67.72
2022-09-15T00:29:05.022Z,67.40
2022-09-15T00:31:32.177Z,67.30
2022-09-15T00:34:02.538Z,67.44
2022-09-15T00:36:29.116Z,67.45
2022-09-15T00:38:55.744Z,67.24
2022-09-15T00:41:23.589Z,67.44
2022-09-15T00:44:05.678Z,67.37
2022-09-15T00:46:37.369Z,67.56
2022-09-15T00:49:17.668Z,67.15
2022-09-15T00:51:59.303Z,67.13
2022-09-15T00:54:31.088Z,67.38
2022-09-15T00:56:58.776Z,67.53
2022-09-15T00:59:28.521Z,68.03
2022-09-15T01:01:58.879Z,68.04
2022-09-15T01:04:25.758Z,67.87
2022-09-15T01:06:58.769Z,68.18
2022-09-15T01:09:33.527Z,68.27
2022-09-15T01:12:00.325Z,68.23
2022-09-15T01:14:26.875Z,68.03
2022-09-15T01:17:07.322Z,67.88
2022-09-15T01:20:10.384Z,68.14
2022-09-15T01:23:14.433Z,68.17
2022-09-15T01:25:59.678Z,68.29
2022-09-15T01:29:22.584Z,68.39
2022-09-15T01:32:16.801Z,68.45
2022-09-15T01:34:55.056Z,68.52
2022-09-15T01:37:24.825Z,68.29
2022-09-15T01:39:52.942Z,68.58
2022-09-15T01:42:20.555Z,68.43
2022-09-15T01:44:58.021Z,68.50
2022-09-15T01:47:26.091Z,68.40
2022-09-15T01:49:55.179Z,68.61
2022-09-15T01:52:23.836Z,68.39
2022-09-15T01:54:58.140Z,68.63
2022-09-15T01:57:24.916Z,68.34
2022-09-15T01:59:54.261Z,68.07
2022-09-15T02:02:25.123Z,67.99
2022-09-15T02:05:01.068Z,68.01
2022-09-15T02:07:52.095Z,68.23
2022-09-15T02:10:29.313Z,68.28
2022-09-15T02:13:06.265Z,68.05
2022-09-15T02:15:42.889Z,67.96
2022-09-15T02:18:13.148Z,68.22
2022-09-15T02:20:53.449Z,68.10
2022-09-15T02:23:26.306Z,67.78
2022-09-15T02:25:57.275Z,68.10
2022-09-15T02:28:29.573Z,68.40
2022-09-15T02:30:57.913Z,68.80
2022-09-15T02:33:26.156Z,68.93
2022-09-15T02:35:52.988Z,68.87
2022-09-15T02:38:19.545Z,68.76
2022-09-15T02:40:46.648Z,68.96
2022-09-15T02:43:16.728Z,69.02
2022-09-15T02:45:43.567Z,69.09
2022-09-15T02:48:10.296Z,69.08
2022-09-15T02:50:37.740Z,69.03
2022-09-15T02:53:04.852Z,69.14
2022-09-15T02:55:31.451Z,69.09
2022-09-15T02:57:58.781Z,68.87
2022-09-15T03:00:26.911Z,69.06
2022-09-15T03:02:54.504Z,68.93
2022-09-15T03:05:27.120Z,69.16
2022-09-15T03:07:54.506Z,69.16
2022-09-15T03:10:21.656Z,69.18
2022-09-15T03:12:52.557Z,69.11
2022-09-15T03:15:21.502Z,69.07
2022-09-15T03:17:48.473Z,68.83
2022-09-15T03:20:20.374Z,68.97
2022-09-15T03:22:47.964Z,68.94
2022-09-15T03:25:14.441Z,68.83
2022-09-15T03:27:40.931Z,68.61
2022-09-15T03:30:08.333Z,69.02
2022-09-15T03:32:35.196Z,69.19
2022-09-15T03:35:01.892Z,68.96
2022-09-15T03:37:28.577Z,69.02
2022-09-15T03:39:55.804Z,69.24
2022-09-15T03:42:22.369Z,69.16
2022-09-15T03:44:48.981Z,69.09
2022-09-15T03:47:15.709Z,69.05
2022-09-15T03:49:42.342Z,69.15
2022-09-15T03:52:08.874Z,69.13
2022-09-15T03:54:35.637Z,69.17
2022-09-15T03:57:03.390Z,69.27
2022-09-15T03:59:29.902Z,69.29
2022-09-15T04:01:56.415Z,69.21
2022-09-15T04:04:22.954Z,69.14
2022-09-15T04:06:49.408Z,69.18
2022-09-15T04:09:16.229Z,68.91
2022-09-15T04:11:42.856Z,68.67
2022-09-15T04:14:09.381Z,68.69
2022-09-15T04:16:36.188Z,68.43
2022-09-15T04:19:02.791Z,68.14
2022-09-15T04:21:31.873Z,68.35
2022-09-15T04:23:58.367Z,68.61
2022-09-15T04:26:26.485Z,68.20
2022-09-15T04:28:52.967Z,68.13
2022-09-15T04:31:20.461Z,68.40
2022-09-15T04:33:47.650Z,68.54
2022-09-15T04:36:19.187Z,68.25
2022-09-15T04:38:45.696Z,68.24
2022-09-15T04:41:12.948Z,68.45
2022-09-15T04:43:39.748Z,68.39
2022-09-15T04:46:06.425Z,68.36
2022-09-15T04:48:33.048Z,68.32
2022-09-15T04:51:07.478Z,68.23
2022-09-15T04:53:35.179Z,68.26
2022-09-15T04:56:06.150Z,68.37
2022-09-15T04:58:39.187Z,68.57
2022-09-15T05:01:13.983Z,68.59
2022-09-15T05:03:41.271Z,68.75
2022-09-15T05:06:09.673Z,68.66
2022-09-15T05:08:36.648Z,68.74
2022-09-15T05:11:06.041Z,68.71
2022-09-15T05:13:33.454Z,68.63
2022-09-15T05:16:07.366Z,68.62
2022-09-15T05:18:35.633Z,68.38
2022-09-15T05:21:02.816Z,68.46
2022-09-15T05:23:29.797Z,68.58
2022-09-15T05:26:01.191Z,68.60
2022-09-15T05:28:28.008Z,68.51
2022-09-15T05:30:55.515Z,68.25
2022-09-15T05:33:23.465Z,68.58
2022-09-15T05:35:50.972Z,68.42
2022-09-15T05:38:17.872Z,68.47
2022-09-15T05:40:44.397Z,68.32
2022-09-15T05:43:11.379Z,68.19
2022-09-15T05:45:37.938Z,68.25
2022-09-15T05:48:04.804Z,68.68
2022-09-15T05:50:31.382Z,68.87
2022-09-15T05:52:58.154Z,68.71
2022-09-15T05:55:24.744Z,68.86
2022-09-15T05:57:51.225Z,68.67
2022-09-15T06:00:19.022Z,69.03
2022-09-15T06:02:45.575Z,68.65
2022-09-15T06:05:12.202Z,68.79
2022-09-15T06:07:39.190Z,68.41
2022-09-15T06:10:06.517Z,68.31
2022-09-15T06:12:33.033Z,68.43
2022-09-15T06:14:59.845Z,68.28
2022-09-15T06:17:26.441Z,68.34
2022-09-15T06:19:52.966Z,68.23
2022-09-15T06:22:19.461Z,68.03
2022-09-15T06:24:46.153Z,68.00
2022-09-15T06:27:12.771Z,68.07
2022-09-15T06:29:39.262Z,67.97
2022-09-15T06:32:05.850Z,68.15
2022-09-15T06:34:35.431Z,67.96
2022-09-15T06:37:01.974Z,68.14
2022-09-15T06:39:28.979Z,67.92
2022-09-15T06:42:04.232Z,67.69
2022-09-15T06:44:32.233Z,67.63
2022-09-15T06:46:58.886Z,67.66
2022-09-15T06:49:25.983Z,67.53
2022-09-15T06:51:52.518Z,67.55
2022-09-15T06:54:19.356Z,67.47
2022-09-15T06:56:45.913Z,67.28
2022-09-15T06:59:13.251Z,67.27
2022-09-15T07:01:40.384Z,66.86
2022-09-15T07:04:10.519Z,67.04
2022-09-15T07:06:39.045Z,67.02
2022-09-15T07:09:06.266Z,66.52
2022-09-15T07:11:33.192Z,66.51
2022-09-15T07:13:59.980Z,66.58
2022-09-15T07:16:26.631Z,66.22
2022-09-15T07:18:56.598Z,66.17
2022-09-15T07:21:23.823Z,66.36
2022-09-15T07:23:50.471Z,66.23
2022-09-15T07:26:17.980Z,65.98
2022-09-15T07:28:46.678Z,65.72
2022-09-15T07:31:15.565Z,65.86
2022-09-15T07:33:42.429Z,65.47
2022-09-15T07:36:10.175Z,65.44
2022-09-15T07:38:40.556Z,65.62
2022-09-15T07:41:09.809Z,65.51
2022-09-15T07:43:36.386Z,65.46
2022-09-15T07:46:03.584Z,65.26
2022-09-15T07:48:30.290Z,64.93
2022-09-15T07:50:57.118Z,65.13
2022-09-15T07:53:23.613Z,65.00
2022-09-15T07:55:53.517Z,64.92
2022-09-15T07:58:20.703Z,64.72
2022-09-15T08:00:50.090Z,64.39
2022-09-15T08:03:16.995Z,64.50
2022-09-15T08:05:45.610Z,64.30
2022-09-15T08:08:12.423Z,64.02
2022-09-15T08:10:40.167Z,63.94
2022-09-15T08:13:06.670Z,63.98
2022-09-15T08:15:38.809Z,64.03
2022-09-15T08:18:06.301Z,64.00
2022-09-15T08:20:33.626Z,63.63
2022-09-15T08:23:00.161Z,63.63
2022-09-15T08:25:26.897Z,63.46
2022-09-15T08:27:54.585Z,63.15
2022-09-15T08:30:21.254Z,63.38
2022-09-15T08:32:48.071Z,62.99
2022-09-15T08:35:16.639Z,62.95
2022-09-15T08:37:43.112Z,63.03
2022-09-15T08:40:16.924Z,62.65
2022-09-15T08:42:45.213Z,62.73
2022-09-15T08:45:28.651Z,62.86
2022-09-15T08:47:59.955Z,62.77
2022-09-15T08:50:31.117Z,62.99
2022-09-15T08:53:06.870Z,63.09
2022-09-15T08:55:41.496Z,62.90
2022-09-15T08:58:15.345Z,62.94
2022-09-15T09:00:42.542Z,62.63
2022-09-15T09:03:32.231Z,62.67
2022-09-15T09:06:01.297Z,63.06
2022-09-15T09:09:06.281Z,62.86
2022-09-15T09:11:43.434Z,63.36
2022-09-15T09:14:23.727Z,63.71
2022-09-15T09:17:08.984Z,63.82
2022-09-15T09:19:38.642Z,63.52
2022-09-15T09:22:11.560Z,64.00
2022-09-15T09:24:53.035Z,63.59
2022-09-15T09:27:23.496Z,63.44
2022-09-15T09:30:20.453Z,63.03
2022-09-15T09:33:06.283Z,62.81
2022-09-15T09:35:43.802Z,62.48
2022-09-15T09:38:16.104Z,62.28
2022-09-15T09:40:43.061Z,62.30
2022-09-15T09:43:11.113Z,62.25
2022-09-15T09:45:37.941Z,62.22
2022-09-15T09:48:15.354Z,62.25
2022-09-15T09:50:45.773Z,62.57
2022-09-15T09:53:33.346Z,62.49
2022-09-15T09:56:11.978Z,62.43
2022-09-15T09:58:38.570Z,62.88
2022-09-15T10:01:17.055Z,62.71
2022-09-15T10:03:45.240Z,62.66
2022-09-15T10:06:16.264Z,62.51
2022-09-15T10:09:05.966Z,62.51
2022-09-15T10:11:39.000Z,62.14
2022-09-15T10:14:06.246Z,61.84
2022-09-15T10:16:33.060Z,61.56
2022-09-15T10:18:59.650Z,61.40
2022-09-15T10:21:26.413Z,61.34
2022-09-15T10:23:53.032Z,61.17
2022-09-15T10:26:21.331Z,60.86
2022-09-15T10:29:13.942Z,60.87
2022-09-15T10:31:41.032Z,61.16
2022-09-15T10:34:25.404Z,61.51
2022-09-15T10:36:55.495Z,61.63
2022-09-15T10:39:32.157Z,61.79
2022-09-15T10:42:28.066Z,61.97
2022-09-15T10:45:01.301Z,61.82
2022-09-15T10:47:40.010Z,61.68
2022-09-15T10:50:14.558Z,61.69
2022-09-15T10:53:10.792Z,61.79
2022-09-15T10:55:58.954Z,61.67
2022-09-15T10:58:45.645Z,61.62
2022-09-15T11:01:27.815Z,61.56
2022-09-15T11:03:54.306Z,61.48
2022-09-15T11:06:30.175Z,61.08
2022-09-15T11:09:29.066Z,61.22
2022-09-15T11:12:04.539Z,60.92
2022-09-15T11:14:52.849Z,60.73
2022-09-15T11:17:44.349Z,60.56
2022-09-15T11:20:29.291Z,59.92
2022-09-15T11:23:11.237Z,59.77
2022-09-15T11:25:43.276Z,59.59
2022-09-15T11:28:22.887Z,59.54
2022-09-15T11:31:00.725Z,59.61
2022-09-15T11:33:42.767Z,59.59
2022-09-15T11:36:14.468Z,59.56
2022-09-15T11:38:54.985Z,59.21
2022-09-15T11:41:33.684Z,58.95
2022-09-15T11:44:27.687Z,58.71
2022-09-15T11:47:00.198Z,58.57
2022-09-15T11:49:41.844Z,58.47
2022-09-15T11:52:22.825Z,58.47
2022-09-15T11:54:56.805Z,58.38
2022-09-15T11:57:28.245Z,58.30
2022-09-15T11:59:59.020Z,58.36
2022-09-15T12:02:35.247Z,58.29
2022-09-15T12:05:33.079Z,58.08
2022-09-15T12:08:04.594Z,58.07
2022-09-15T12:10:36.282Z,58.31
2022-09-15T12:13:03.185Z,58.34
2022-09-15T12:15:29.993Z,58.58
2022-09-15T12:18:06.553Z,58.51
2022-09-15T12:20:51.458Z,58.86
2022-09-15T12:23:26.898Z,58.64
2022-09-15T12:26:02.649Z,58.52
2022-09-15T12:28:52.129Z,58.49
2022-09-15T12:31:28.101Z,58.54
2022-09-15T12:34:34.243Z,58.49
2022-09-15T12:37:11.293Z,58.48
2022-09-15T12:39:40.597Z,58.55
2022-09-15T12:42:15.098Z,58.48
2022-09-15T12:44:47.699Z,58.46
2022-09-15T12:47:40.645Z,58.70
2022-09-15T12:50:07.585Z,58.70
2022-09-15T12:53:01.834Z,58.13
2022-09-15T12:55:32.174Z,57.91
2022-09-15T12:58:10.375Z,57.76
2022-09-15T13:00:54.792Z,57.56
2022-09-15T13:03:49.432Z,57.33
2022-09-15T13:06:18.308Z,57.61
2022-09-15T13:09:15.513Z,57.50
2022-09-15T13:14:38.545Z,57.87
2022-09-15T13:17:16.699Z,58.33
2022-09-15T13:19:47.899Z,58.39
2022-09-15T13:22:25.323Z,58.69
2022-09-15T13:25:01.611Z,58.72
2022-09-15T13:28:05.201Z,58.96
2022-09-15T13:31:03.550Z,58.90
2022-09-15T13:39:59.919Z,59.26
2022-09-15T13:43:08.542Z,59.19
2022-09-15T13:45:47.526Z,59.27
2022-09-15T13:48:27.185Z,59.43
2022-09-15T13:51:01.595Z,59.31
2022-09-15T13:53:37.386Z,59.43
2022-09-15T13:56:08.371Z,59.25
2022-09-15T14:01:23.146Z,58.55
2022-09-15T14:03:55.404Z,58.31
2022-09-15T14:06:30.515Z,57.91
2022-09-15T14:08:59.012Z,57.74
2022-09-15T14:11:29.235Z,57.67
2022-09-15T14:13:56.633Z,57.80
2022-09-15T14:16:28.019Z,58.26
2022-09-15T14:18:57.688Z,58.07
2022-09-15T14:21:34.784Z,58.39
2022-09-15T14:24:07.059Z,58.54
2022-09-15T14:26:35.674Z,58.60
2022-09-15T14:29:06.565Z,58.49
2022-09-15T14:31:42.431Z,58.42
2022-09-15T14:34:17.035Z,58.26
2022-09-15T14:36:43.582Z,58.07
2022-09-15T14:39:17.926Z,57.93
2022-09-15T14:41:45.075Z,57.76
2022-09-15T14:47:28.271Z,57.74
2022-09-15T14:50:17.345Z,57.66
2022-09-15T14:52:48.374Z,57.81
2022-09-15T14:55:35.943Z,57.42
2022-09-15T14:58:06.254Z,57.55
2022-09-15T15:00:38.258Z,56.92
2022-09-15T15:03:30.160Z,56.18
2022-09-15T15:06:02.743Z,55.90
2022-09-15T15:09:18.991Z,55.48
2022-09-15T15:11:48.412Z,55.21
2022-09-15T15:14:16.555Z,55.10
2022-09-15T15:16:57.246Z,54.73
2022-09-15T15:20:00.430Z,54.81
2022-09-15T15:22:27.560Z,54.92
2022-09-15T15:24:55.200Z,55.07
2022-09-15T15:27:41.337Z,55.74
2022-09-15T15:36:27.551Z,56.03
2022-09-15T15:39:04.109Z,55.95
2022-09-15T15:41:40.119Z,55.68
2022-09-15T15:44:39.845Z,55.83
2022-09-15T15:47:36.005Z,55.62
2022-09-15T15:50:13.956Z,55.71
2022-09-15T15:52:41.697Z,55.46
2022-09-15T15:55:08.487Z,55.43
2022-09-15T15:57:38.137Z,55.23
2022-09-15T16:00:17.725Z,55.00
2022-09-15T16:02:48.057Z,54.80
2022-09-15T16:05:18.077Z,54.91
2022-09-15T16:07:46.002Z,54.61
2022-09-15T16:10:21.821Z,54.36
2022-09-15T16:12:57.306Z,54.72
2022-09-15T16:15:35.937Z,55.12
2022-09-15T16:18:03.666Z,55.67
2022-09-15T16:20:30.644Z,56.04
2022-09-15T16:22:57.777Z,56.04
2022-09-15T16:25:29.924Z,56.30
2022-09-15T16:27:56.607Z,57.25
2022-09-15T16:30:23.175Z,58.88
2022-09-15T16:32:49.821Z,59.79
2022-09-15T16:35:27.070Z,60.90
2022-09-15T16:37:53.746Z,61.33
2022-09-15T16:40:20.433Z,61.92
2022-09-15T16:42:51.231Z,62.80
2022-09-15T16:45:30.829Z,63.12
2022-09-15T16:47:57.657Z,63.62
2022-09-15T16:50:27.938Z,64.26
2022-09-15T16:52:58.527Z,64.08
2022-09-15T16:55:39.489Z,64.52
2022-09-15T16:58:06.852Z,64.83
2022-09-15T17:00:35.906Z,65.04
2022-09-15T17:03:03.955Z,65.23
2022-09-15T17:05:45.174Z,65.66
2022-09-15T17:08:14.712Z,65.41
2022-09-15T17:10:42.070Z,65.33
2022-09-15T17:13:10.821Z,65.43
2022-09-15T17:15:39.583Z,65.66
2022-09-15T17:18:10.723Z,65.67
2022-09-15T17:20:39.328Z,65.99
2022-09-15T17:23:23.841Z,65.85
2022-09-15T17:25:57.414Z,65.73
2022-09-15T17:28:36.147Z,66.09
2022-09-15T17:31:13.837Z,65.93
2022-09-15T17:33:40.902Z,66.16
2022-09-15T17:36:08.105Z,66.27
2022-09-15T17:38:34.885Z,66.33
2022-09-15T17:41:01.548Z,66.48
2022-09-15T17:43:30.132Z,66.49
2022-09-15T17:45:57.082Z,66.77
2022-09-15T17:48:23.941Z,66.88
2022-09-15T17:50:51.626Z,66.76
2022-09-15T17:53:25.272Z,67.00
2022-09-15T17:55:51.996Z,66.78
2022-09-15T17:58:18.745Z,66.80
2022-09-15T18:00:47.786Z,66.83
2022-09-15T18:03:27.968Z,66.76
2022-09-15T18:05:59.644Z,67.07
2022-09-15T18:08:27.092Z,66.87
2022-09-15T18:10:54.205Z,66.96
2022-09-15T18:13:26.368Z,66.91
2022-09-15T18:15:54.139Z,67.22
2022-09-15T18:18:26.533Z,66.72
2022-09-15T18:20:54.396Z,67.03
2022-09-15T18:23:35.371Z,66.67
2022-09-15T18:26:26.273Z,66.85
2022-09-15T18:28:54.844Z,67.02
2022-09-15T18:31:22.155Z,66.65
2022-09-15T18:33:49.270Z,66.82
2022-09-15T18:36:16.366Z,67.10
2022-09-15T18:38:43.114Z,66.92
2022-09-15T18:41:11.079Z,66.57
2022-09-15T18:44:29.439Z,66.69
2022-09-15T18:47:27.256Z,66.86
2022-09-15T18:49:54.092Z,66.51
2022-09-15T18:52:21.262Z,66.27
2022-09-15T18:54:48.165Z,66.71
2022-09-15T18:57:15.505Z,66.48
2022-09-15T18:59:42.240Z,66.70
2022-09-15T19:02:11.900Z,66.65
2022-09-15T19:04:40.633Z,66.60
2022-09-15T19:07:16.724Z,67.00
2022-09-15T19:09:52.156Z,66.73
2022-09-15T19:14:52.585Z,66.15
2022-09-15T19:17:23.428Z,65.86
2022-09-15T19:19:50.345Z,65.82
2022-09-15T19:22:16.947Z,65.59
2022-09-15T19:24:43.508Z,65.58
2022-09-15T19:27:10.637Z,65.80
2022-09-15T19:29:37.807Z,65.49
2022-09-15T19:32:06.997Z,65.46
2022-09-15T19:34:34.914Z,65.49
2022-09-15T19:37:01.690Z,65.72
2022-09-15T19:39:36.182Z,65.53
2022-09-15T19:42:03.521Z,65.37
2022-09-15T19:44:30.151Z,65.37
2022-09-15T19:46:56.667Z,65.77
2022-09-15T19:49:23.824Z,65.72
2022-09-15T19:52:01.916Z,65.67
2022-09-15T19:54:30.120Z,65.77
2022-09-15T19:56:57.146Z,65.91
2022-09-15T19:59:28.703Z,65.83
2022-09-15T20:01:57.786Z,65.63
2022-09-15T20:04:24.624Z,65.69
2022-09-15T20:06:51.802Z,65.47
2022-09-15T20:09:23.864Z,65.54
2022-09-15T20:11:50.488Z,65.49
2022-09-15T20:14:31.763Z,65.55
2022-09-15T20:17:01.891Z,65.73
2022-09-15T20:19:29.487Z,65.77
2022-09-15T20:21:56.416Z,65.47
2022-09-15T20:24:23.847Z,65.78
2022-09-15T20:27:00.763Z,65.74
2022-09-15T20:29:27.698Z,65.46
2022-09-15T20:31:57.823Z,65.29
2022-09-15T20:34:27.532Z,65.48
2022-09-15T20:36:54.367Z,65.34
2022-09-15T20:39:33.302Z,65.50
2022-09-15T20:42:00.247Z,65.42
2022-09-15T20:44:29.182Z,65.22
2022-09-15T20:47:10.310Z,65.02
2022-09-15T20:49:42.837Z,64.83
2022-09-15T20:52:09.710Z,65.02
2022-09-15T20:54:39.299Z,65.01
2022-09-15T20:57:05.898Z,64.58
2022-09-15T20:59:32.498Z,64.48
2022-09-15T21:01:59.330Z,64.18
2022-09-15T21:04:26.388Z,64.39
2022-09-15T21:06:52.943Z,64.43
2022-09-15T21:09:19.646Z,64.23
2022-09-15T21:11:50.145Z,64.16
2022-09-15T21:14:19.501Z,64.48
2022-09-15T21:16:46.073Z,64.03
2022-09-15T21:19:13.085Z,64.05
2022-09-15T21:21:40.041Z,64.34
2022-09-15T21:24:09.680Z,64.50
2022-09-15T21:26:59.372Z,64.38
2022-09-15T21:29:45.308Z,64.59
2022-09-15T21:32:11.942Z,64.63
2022-09-15T21:34:38.402Z,64.60
2022-09-15T21:37:05.253Z,64.75
2022-09-15T21:39:31.887Z,64.33
2022-09-15T21:41:58.677Z,64.47
2022-09-15T21:44:25.538Z,64.56
2022-09-15T21:46:52.746Z,64.88
2022-09-15T21:49:19.467Z,64.62
2022-09-15T21:51:48.381Z,64.79
2022-09-15T21:54:15.145Z,64.70
2022-09-15T21:56:41.850Z,64.49
2022-09-15T21:59:09.058Z,64.37
2022-09-15T22:01:35.858Z,64.73
2022-09-15T22:04:07.821Z,64.24
2022-09-15T22:06:36.249Z,64.46
2022-09-15T22:09:06.747Z,64.81
2022-09-15T22:11:37.066Z,64.86
2022-09-15T22:14:14.349Z,64.85
2022-09-15T22:16:42.250Z,64.99
2022-09-15T22:19:10.283Z,64.51
2022-09-15T22:21:39.529Z,64.29
2022-09-15T22:24:07.278Z,64.25
2022-09-15T22:26:36.540Z,64.11
2022-09-15T22:29:03.990Z,64.09
2022-09-15T22:31:30.803Z,63.80
2022-09-15T22:33:57.439Z,64.30
2022-09-15T22:36:30.195Z,64.04
2022-09-15T22:39:04.686Z,64.23
2022-09-15T22:41:36.623Z,64.37
2022-09-15T22:44:03.565Z,64.39
2022-09-15T22:46:32.894Z,64.31
2022-09-15T22:48:59.810Z,64.24
2022-09-15T22:51:26.441Z,63.98
2022-09-15T22:54:06.972Z,64.08
2022-09-15T22:56:37.025Z,63.78
2022-09-15T22:59:03.730Z,63.54
2022-09-15T23:01:31.201Z,63.63
2022-09-15T23:04:01.468Z,63.73
2022-09-15T23:06:30.886Z,63.82
2022-09-15T23:09:00.204Z,64.03
2022-09-15T23:11:28.417Z,63.97
2022-09-15T23:13:56.158Z,63.92
2022-09-15T23:16:24.609Z,64.29
2022-09-15T23:18:52.078Z,64.23
2022-09-15T23:21:19.247Z,64.10
2022-09-15T23:23:48.425Z,64.28
2022-09-15T23:26:20.558Z,63.89
2022-09-15T23:28:49.117Z,64.16
2022-09-15T23:31:16.554Z,64.00
2022-09-15T23:33:43.754Z,63.79
2022-09-15T23:36:13.016Z,64.01
2022-09-15T23:38:41.182Z,63.74
2022-09-15T23:41:09.219Z,63.76
2022-09-15T23:43:36.067Z,63.78
2022-09-15T23:46:03.607Z,63.92
2022-09-15T23:48:34.177Z,64.20
2022-09-15T23:51:01.124Z,63.97
2022-09-15T23:53:27.914Z,63.98
2022-09-15T23:55:54.542Z,63.92
2022-09-15T23:58:21.118Z,64.21
